createdAt,value
2022-11-24T00:01:18.461Z,30.60
2022-11-24T00:03:50.057Z,22.25
2022-11-24T00:06:17.012Z,22.83
2022-11-24T00:08:46.051Z,26.48
2022-11-24T00:11:21.009Z,27.10
2022-11-24T00:13:48.516Z,29.10
2022-11-24T00:16:21.451Z,21.17
2022-11-24T00:18:50.097Z,22.70
2022-11-24T00:21:22.135Z,27.38
2022-11-24T00:23:49.558Z,26.98
2022-11-24T00:26:19.324Z,28.90
2022-11-24T00:28:47.465Z,27.25
2022-11-24T00:31:44.512Z,26.42
2022-11-24T00:34:16.051Z,18.95
2022-11-24T00:36:44.982Z,17.83
2022-11-24T00:39:14.179Z,19.20
2022-11-24T00:41:41.582Z,22.25
2022-11-24T00:44:11.085Z,17.80
2022-11-24T00:46:38.679Z,18.05
2022-11-24T00:49:05.977Z,19.40
2022-11-24T00:51:32.904Z,17.70
2022-11-24T00:54:01.186Z,19.45
2022-11-24T00:56:29.640Z,12.40
2022-11-24T00:58:56.676Z,21.77
2022-11-24T01:01:25.837Z,17.40
2022-11-24T01:03:55.298Z,14.50
2022-11-24T01:06:24.803Z,16.40
2022-11-24T01:08:51.874Z,16.33
2022-11-24T01:11:21.028Z,18.58
2022-11-24T01:13:49.973Z,20.90
2022-11-24T01:16:26.506Z,18.60
2022-11-24T01:18:56.522Z,16.25
2022-11-24T01:21:23.746Z,26.00
2022-11-24T01:23:50.609Z,21.25
2022-11-24T01:26:20.901Z,21.17
2022-11-24T01:28:52.073Z,17.63
2022-11-24T01:31:18.861Z,21.60
2022-11-24T01:33:45.711Z,17.30
2022-11-24T01:36:13.182Z,17.77
2022-11-24T01:38:39.993Z,15.32
2022-11-24T01:41:09.219Z,12.73
2022-11-24T01:43:38.748Z,20.13
2022-11-24T01:46:30.206Z,18.75
2022-11-24T01:49:00.071Z,14.93
2022-11-24T01:51:33.490Z,21.60
2022-11-24T01:54:09.068Z,18.73
2022-11-24T01:56:40.729Z,18.00
2022-11-24T01:59:11.833Z,15.68
2022-11-24T02:01:41.214Z,16.58
2022-11-24T02:04:12.900Z,18.08
2022-11-24T02:06:41.267Z,16.05
2022-11-24T02:09:46.943Z,17.17
2022-11-24T02:12:13.723Z,24.10
2022-11-24T02:14:43.189Z,20.83
2022-11-24T02:17:12.220Z,18.48
2022-11-24T02:19:53.933Z,12.63
2022-11-24T02:23:01.412Z,12.35
2022-11-24T02:25:54.818Z,16.30
2022-11-24T02:28:23.408Z,17.52
2022-11-24T02:30:51.057Z,9.80
2022-11-24T02:33:20.797Z,6.35
2022-11-24T02:35:50.683Z,9.52
2022-11-24T02:38:28.835Z,8.05
2022-11-24T02:41:02.560Z,6.57
2022-11-24T02:43:32.620Z,8.85
2022-11-24T02:45:59.554Z,5.43
2022-11-24T02:48:28.525Z,7.53
2022-11-24T02:50:55.315Z,5.70
2022-11-24T02:53:25.154Z,3.38
2022-11-24T02:55:54.590Z,4.95
2022-11-24T02:58:21.504Z,3.20
2022-11-24T03:00:48.482Z,5.28
2022-11-24T03:03:17.665Z,5.43
2022-11-24T03:05:44.554Z,3.42
2022-11-24T03:08:13.514Z,4.75
2022-11-24T03:10:42.784Z,10.82
2022-11-24T03:13:11.920Z,8.20
2022-11-24T03:15:41.260Z,10.43
2022-11-24T03:18:08.054Z,9.10
2022-11-24T03:20:34.909Z,7.07
2022-11-24T03:23:03.822Z,9.80
2022-11-24T03:25:30.960Z,11.48
2022-11-24T03:28:00.244Z,13.77
2022-11-24T03:30:27.413Z,15.13
2022-11-24T03:32:54.526Z,12.55
2022-11-24T03:35:21.933Z,12.02
2022-11-24T03:37:49.365Z,10.88
2022-11-24T03:40:17.932Z,14.00
2022-11-24T03:42:44.755Z,14.27
2022-11-24T03:45:30.286Z,19.23
2022-11-24T03:47:59.064Z,13.77
2022-11-24T03:50:28.366Z,14.63
2022-11-24T03:52:57.351Z,16.05
2022-11-24T03:55:24.369Z,11.85
2022-11-24T03:57:53.345Z,16.10
2022-11-24T04:00:22.338Z,12.48
2022-11-24T04:02:49.193Z,12.02
2022-11-24T04:05:16.342Z,6.47
2022-11-24T04:07:45.628Z,6.93
2022-11-24T04:10:15.535Z,6.65
2022-11-24T04:12:45.095Z,5.47
2022-11-24T04:15:14.458Z,6.15
2022-11-24T04:17:41.558Z,3.50
2022-11-24T04:20:11.313Z,6.60
2022-11-24T04:22:41.065Z,5.60
2022-11-24T04:25:09.250Z,5.32
2022-11-24T04:27:39.675Z,5.63
2022-11-24T04:30:07.397Z,6.32
2022-11-24T04:32:34.139Z,7.47
2022-11-24T04:35:04.108Z,8.05
2022-11-24T04:37:36.486Z,3.58
2022-11-24T04:40:03.864Z,8.73
2022-11-24T04:42:33.082Z,9.35
2022-11-24T04:45:02.660Z,4.57
2022-11-24T04:47:31.548Z,6.13
2022-11-24T04:50:00.454Z,7.03
2022-11-24T04:52:27.202Z,5.88
2022-11-24T04:54:54.075Z,6.03
2022-11-24T04:57:22.992Z,4.80
2022-11-24T04:59:50.436Z,1.65
2022-11-24T05:02:19.704Z,6.05
2022-11-24T05:04:46.651Z,4.57
2022-11-24T05:07:18.314Z,5.72
2022-11-24T05:10:05.046Z,5.35
2022-11-24T05:12:31.797Z,6.47
2022-11-24T05:15:02.897Z,3.72
2022-11-24T05:17:32.016Z,7.63
2022-11-24T05:20:01.318Z,7.50
2022-11-24T05:22:32.721Z,4.07
2022-11-24T05:24:59.621Z,7.70
2022-11-24T05:27:29.268Z,7.45
2022-11-24T05:29:56.360Z,9.30
2022-11-24T05:32:23.547Z,8.23
2022-11-24T05:34:54.223Z,8.43
2022-11-24T05:37:25.639Z,8.27
2022-11-24T05:39:54.550Z,8.93
2022-11-24T05:42:44.905Z,12.13
2022-11-24T05:45:19.023Z,10.07
2022-11-24T05:47:48.557Z,9.20
2022-11-24T05:50:19.160Z,9.45
2022-11-24T05:52:46.189Z,8.05
2022-11-24T05:55:15.236Z,7.28
2022-11-24T05:57:42.384Z,12.75
2022-11-24T06:00:11.990Z,7.60
2022-11-24T06:02:41.318Z,9.38
2022-11-24T06:05:09.087Z,10.82
2022-11-24T06:07:35.900Z,9.18
2022-11-24T06:10:02.916Z,10.65
2022-11-24T06:12:29.599Z,8.90
2022-11-24T06:14:56.514Z,9.48
2022-11-24T06:17:25.831Z,7.57
2022-11-24T06:19:54.738Z,7.35
2022-11-24T06:22:21.588Z,10.70
2022-11-24T06:24:50.572Z,8.30
2022-11-24T06:27:17.496Z,8.25
2022-11-24T06:29:44.192Z,8.00
2022-11-24T06:32:13.259Z,9.35
2022-11-24T06:34:40.253Z,9.57
2022-11-24T06:37:09.275Z,9.80
2022-11-24T06:39:36.257Z,7.35
2022-11-24T06:42:05.280Z,12.02
2022-11-24T06:44:34.572Z,11.93
2022-11-24T06:47:01.726Z,10.90
2022-11-24T06:49:28.442Z,13.85
2022-11-24T06:51:55.631Z,13.98
2022-11-24T06:54:22.344Z,15.68
2022-11-24T06:56:49.109Z,12.45
2022-11-24T06:59:20.525Z,11.10
2022-11-24T07:01:47.378Z,12.32
2022-11-24T07:04:15.106Z,15.38
2022-11-24T07:06:41.994Z,12.85
2022-11-24T07:09:10.326Z,11.80
2022-11-24T07:11:37.695Z,11.52
2022-11-24T07:14:07.605Z,14.05
2022-11-24T07:16:34.853Z,9.25
2022-11-24T07:19:06.306Z,15.80
2022-11-24T07:21:33.170Z,18.45
2022-11-24T07:23:59.908Z,12.32
2022-11-24T07:26:27.093Z,12.18
2022-11-24T07:28:53.881Z,13.65
2022-11-24T07:31:24.975Z,14.98
2022-11-24T07:33:53.471Z,13.65
2022-11-24T07:36:20.622Z,14.20
2022-11-24T07:38:49.693Z,13.63
2022-11-24T07:41:19.481Z,17.77
2022-11-24T07:43:46.679Z,19.92
2022-11-24T07:46:18.008Z,16.52
2022-11-24T07:48:45.373Z,14.38
2022-11-24T07:51:14.792Z,14.48
2022-11-24T07:53:41.620Z,19.85
2022-11-24T07:56:12.580Z,13.73
2022-11-24T07:58:41.570Z,21.90
2022-11-24T08:01:18.368Z,20.38
2022-11-24T08:03:46.424Z,21.30
2022-11-24T08:06:38.504Z,17.55
2022-11-24T08:09:01.624Z,14.75
2022-11-24T08:11:28.486Z,18.95
2022-11-24T08:13:55.248Z,18.42
2022-11-24T08:16:22.770Z,17.25
2022-11-24T08:18:54.393Z,16.63
2022-11-24T08:21:23.348Z,20.23
2022-11-24T08:23:53.723Z,19.08
2022-11-24T08:26:22.931Z,18.90
2022-11-24T08:28:54.835Z,27.52
2022-11-24T08:31:21.685Z,24.80
2022-11-24T08:33:48.611Z,19.02
2022-11-24T08:36:17.889Z,14.98
2022-11-24T08:38:45.444Z,18.30
2022-11-24T08:41:14.730Z,19.85
2022-11-24T08:43:43.904Z,18.25
2022-11-24T08:46:13.278Z,24.17
2022-11-24T08:48:40.589Z,22.00
2022-11-24T08:51:13.120Z,23.38
2022-11-24T08:53:43.118Z,20.67
2022-11-24T08:56:11.708Z,23.17
2022-11-24T08:58:38.858Z,20.58
2022-11-24T09:01:14.981Z,25.38
2022-11-24T09:03:50.458Z,20.98
2022-11-24T09:06:19.959Z,17.85
2022-11-24T09:08:46.670Z,16.95
2022-11-24T09:11:15.250Z,19.77
2022-11-24T09:13:42.834Z,18.33
2022-11-24T09:16:15.559Z,21.67
2022-11-24T09:18:45.196Z,19.05
2022-11-24T09:21:13.271Z,18.70
2022-11-24T09:23:45.731Z,19.95
2022-11-24T09:26:16.026Z,27.00
2022-11-24T09:28:43.305Z,24.65
2022-11-24T09:31:12.929Z,21.02
2022-11-24T09:33:44.351Z,19.70
2022-11-24T09:36:11.309Z,21.42
2022-11-24T09:38:38.029Z,26.27
2022-11-24T09:41:29.569Z,18.45
2022-11-24T09:44:24.388Z,16.48
2022-11-24T09:46:57.055Z,18.58
2022-11-24T09:49:51.659Z,20.00
2022-11-24T09:52:37.447Z,18.85
2022-11-24T09:55:14.587Z,22.23
2022-11-24T09:57:43.924Z,17.48
2022-11-24T10:00:13.533Z,20.00
2022-11-24T10:02:40.472Z,25.50
2022-11-24T10:05:07.860Z,13.73
2022-11-24T10:07:53.989Z,24.33
2022-11-24T10:10:28.582Z,22.38
2022-11-24T10:13:16.632Z,23.75
2022-11-24T10:16:09.284Z,24.05
2022-11-24T10:19:21.978Z,24.00
2022-11-24T10:22:23.435Z,20.13
2022-11-24T10:25:11.658Z,23.92
2022-11-24T10:27:45.079Z,20.75
2022-11-24T10:30:21.036Z,21.88
2022-11-24T10:33:00.855Z,18.25
2022-11-24T10:35:47.099Z,20.63
2022-11-24T10:38:42.695Z,23.45
2022-11-24T10:41:21.355Z,25.42
2022-11-24T10:43:48.118Z,24.33
2022-11-24T10:46:26.304Z,20.48
2022-11-24T10:49:05.124Z,16.02
2022-11-24T10:51:51.048Z,20.77
2022-11-24T10:54:20.914Z,21.20
2022-11-24T10:56:51.014Z,18.75
2022-11-24T10:59:36.952Z,17.33
2022-11-24T11:02:35.441Z,21.35
2022-11-24T11:05:35.162Z,21.20
2022-11-24T11:08:13.602Z,18.38
2022-11-24T11:10:43.560Z,22.98
2022-11-24T11:13:33.026Z,24.95
2022-11-24T11:15:59.969Z,24.63
2022-11-24T11:18:36.355Z,20.10
2022-11-24T11:21:05.237Z,26.25
2022-11-24T11:23:35.346Z,23.00
2022-11-24T11:26:22.072Z,21.90
2022-11-24T11:31:15.360Z,27.30
2022-11-24T11:35:12.470Z,21.63
2022-11-24T11:37:39.243Z,21.60
2022-11-24T11:40:16.336Z,20.80
2022-11-24T11:43:02.372Z,23.25
2022-11-24T11:45:36.562Z,31.67
2022-11-24T11:48:03.382Z,18.67
2022-11-24T11:50:47.484Z,23.02
2022-11-24T11:53:45.812Z,22.65
2022-11-24T11:56:33.134Z,23.30
2022-11-24T11:59:18.718Z,19.55
2022-11-24T12:02:10.288Z,22.35
2022-11-24T12:04:59.501Z,23.10
2022-11-24T12:07:43.337Z,19.92
2022-11-24T12:10:40.352Z,20.42
2022-11-24T12:13:22.036Z,17.65
2022-11-24T12:15:54.667Z,25.73
2022-11-24T12:18:58.730Z,26.52
2022-11-24T12:21:35.644Z,23.33
2022-11-24T12:24:22.006Z,17.45
2022-11-24T12:26:54.919Z,19.55
2022-11-24T12:29:46.039Z,23.08
2022-11-24T12:32:47.937Z,22.83
2022-11-24T12:35:39.836Z,20.98
2022-11-24T12:44:11.442Z,24.52
2022-11-24T12:46:51.550Z,20.65
2022-11-24T12:49:27.230Z,18.38
2022-11-24T12:52:02.929Z,18.48
2022-11-24T12:54:41.762Z,24.50
2022-11-24T12:57:26.317Z,16.48
2022-11-24T13:00:02.252Z,23.63
2022-11-24T13:02:53.966Z,17.58
2022-11-24T13:05:37.725Z,25.55
2022-11-24T13:08:06.068Z,23.85
2022-11-24T13:10:55.364Z,20.05
2022-11-24T13:13:28.451Z,19.35
2022-11-24T13:18:49.348Z,22.73
2022-11-24T13:21:30.640Z,26.52
2022-11-24T13:24:22.413Z,15.73
2022-11-24T13:27:08.780Z,23.13
2022-11-24T13:29:39.852Z,24.15
2022-11-24T13:32:06.530Z,20.35
2022-11-24T13:34:39.503Z,23.67
2022-11-24T13:37:35.259Z,22.42
2022-11-24T13:40:11.677Z,18.50
2022-11-24T13:43:02.065Z,17.40
2022-11-24T13:45:49.168Z,21.65
2022-11-24T13:48:19.081Z,21.85
2022-11-24T13:50:53.096Z,21.55
2022-11-24T13:53:40.896Z,18.23
2022-11-24T13:56:13.730Z,19.67
2022-11-24T13:58:47.275Z,16.45
2022-11-24T14:01:25.391Z,19.08
2022-11-24T14:04:32.528Z,22.75
2022-11-24T14:07:08.437Z,25.42
2022-11-24T14:09:50.458Z,18.27
2022-11-24T14:12:22.567Z,21.08
2022-11-24T14:15:23.595Z,22.67
2022-11-24T14:17:50.352Z,20.23
2022-11-24T14:20:24.201Z,19.83
2022-11-24T14:22:51.298Z,22.75
2022-11-24T14:25:26.928Z,17.75
2022-11-24T14:27:53.944Z,21.30
2022-11-24T14:30:23.379Z,21.65
2022-11-24T14:32:55.321Z,23.67
2022-11-24T14:35:36.113Z,17.15
2022-11-24T14:38:05.533Z,21.90
2022-11-24T14:40:45.096Z,20.30
2022-11-24T14:43:31.915Z,14.80
2022-11-24T14:46:00.832Z,21.23
2022-11-24T14:48:38.918Z,18.23
2022-11-24T14:51:14.590Z,19.05
2022-11-24T14:53:43.682Z,21.30
2022-11-24T14:56:28.031Z,15.07
2022-11-24T14:58:56.253Z,17.92
2022-11-24T15:01:33.957Z,18.58
2022-11-24T15:04:54.403Z,49.05
2022-11-24T15:07:30.789Z,48.10
2022-11-24T15:09:59.779Z,52.53
2022-11-24T15:12:34.275Z,25.63
2022-11-24T15:15:14.823Z,22.88
2022-11-24T15:17:55.204Z,28.02
2022-11-24T15:20:47.816Z,20.58
2022-11-24T15:23:26.926Z,26.40
2022-11-24T15:25:58.296Z,29.58
2022-11-24T15:28:28.076Z,26.05
2022-11-24T15:31:15.712Z,22.88
2022-11-24T15:33:42.569Z,17.98
2022-11-24T15:36:11.565Z,18.85
2022-11-24T15:38:38.285Z,51.90
2022-11-24T15:41:21.624Z,67.22
2022-11-24T15:43:48.626Z,42.28
2022-11-24T15:46:17.945Z,41.03
2022-11-24T15:48:44.767Z,21.83
2022-11-24T15:51:14.193Z,30.20
2022-11-24T15:53:47.592Z,25.45
2022-11-24T15:56:34.808Z,29.10
2022-11-24T15:59:02.963Z,39.92
2022-11-24T16:01:33.057Z,25.40
2022-11-24T16:04:00.873Z,22.17
2022-11-24T16:06:27.836Z,26.42
2022-11-24T16:08:54.705Z,16.60
2022-11-24T16:11:24.537Z,20.85
2022-11-24T16:13:54.386Z,22.38
2022-11-24T16:16:23.340Z,20.35
2022-11-24T16:18:50.619Z,20.35
2022-11-24T16:21:19.880Z,18.40
2022-11-24T16:23:47.835Z,17.42
2022-11-24T16:26:14.783Z,21.00
2022-11-24T16:28:42.105Z,29.88
2022-11-24T16:31:08.809Z,29.70
2022-11-24T16:33:38.648Z,20.45
2022-11-24T16:36:05.591Z,25.17
2022-11-24T16:38:32.522Z,18.77
2022-11-24T16:40:59.357Z,18.98
2022-11-24T16:43:28.204Z,19.92
2022-11-24T16:46:18.256Z,27.45
2022-11-24T16:48:50.274Z,20.27
2022-11-24T16:51:18.345Z,16.15
2022-11-24T16:53:45.109Z,19.50
2022-11-24T16:56:13.207Z,25.55
2022-11-24T16:58:44.104Z,23.48
2022-11-24T17:01:13.257Z,19.43
2022-11-24T17:03:41.087Z,23.58
2022-11-24T17:06:15.770Z,23.77
2022-11-24T17:08:45.922Z,22.55
2022-11-24T17:11:15.281Z,19.02
2022-11-24T17:13:42.960Z,20.30
2022-11-24T17:16:12.182Z,26.65
2022-11-24T17:18:39.894Z,29.50
2022-11-24T17:21:10.168Z,36.70
2022-11-24T17:23:37.466Z,29.17
2022-11-24T17:26:06.923Z,28.60
2022-11-24T17:28:34.789Z,24.48
2022-11-24T17:31:24.184Z,22.92
2022-11-24T17:33:52.945Z,25.85
2022-11-24T17:36:20.115Z,17.90
2022-11-24T17:38:49.021Z,24.42
2022-11-24T17:41:16.229Z,32.17
2022-11-24T17:43:42.930Z,27.15
2022-11-24T17:46:10.989Z,19.00
2022-11-24T17:48:37.746Z,20.98
2022-11-24T17:51:15.675Z,28.25
2022-11-24T17:53:44.564Z,24.05
2022-11-24T17:56:16.978Z,27.35
2022-11-24T17:58:44.052Z,29.08
2022-11-24T18:01:12.465Z,22.05
2022-11-24T18:03:40.265Z,26.67
2022-11-24T18:06:11.842Z,23.02
2022-11-24T18:08:41.345Z,19.85
2022-11-24T18:11:23.553Z,20.42
2022-11-24T18:13:59.732Z,27.15
2022-11-24T18:16:29.859Z,24.33
2022-11-24T18:19:11.859Z,20.60
2022-11-24T18:21:40.569Z,25.73
2022-11-24T18:24:09.514Z,22.23
2022-11-24T18:26:36.494Z,18.60
2022-11-24T18:29:03.633Z,18.33
2022-11-24T18:31:35.308Z,25.30
2022-11-24T18:34:04.197Z,18.63
2022-11-24T18:36:33.619Z,18.70
2022-11-24T18:39:04.747Z,23.77
2022-11-24T18:41:33.904Z,21.00
2022-11-24T18:44:08.247Z,24.00
2022-11-24T18:46:35.950Z,21.90
2022-11-24T18:49:05.138Z,22.50
2022-11-24T18:51:31.959Z,34.65
2022-11-24T18:53:58.627Z,16.23
2022-11-24T18:56:26.300Z,20.13
2022-11-24T18:58:54.180Z,20.90
2022-11-24T19:01:24.140Z,21.92
2022-11-24T19:03:59.394Z,25.42
2022-11-24T19:06:34.543Z,24.77
2022-11-24T19:09:12.900Z,29.50
2022-11-24T19:11:43.927Z,22.10
2022-11-24T19:14:17.925Z,21.23
2022-11-24T19:16:47.908Z,18.08
2022-11-24T19:19:15.107Z,23.10
2022-11-24T19:21:44.518Z,17.17
2022-11-24T19:24:13.200Z,19.55
2022-11-24T19:26:41.209Z,23.83
2022-11-24T19:29:08.514Z,19.25
2022-11-24T19:31:39.601Z,17.70
2022-11-24T19:34:08.067Z,19.95
2022-11-24T19:36:35.312Z,19.58
2022-11-24T19:39:04.651Z,20.35
2022-11-24T19:41:32.630Z,16.98
2022-11-24T19:44:00.172Z,18.25
2022-11-24T19:46:29.712Z,22.45
2022-11-24T19:48:59.850Z,21.05
2022-11-24T19:51:32.770Z,20.33
2022-11-24T19:54:00.366Z,17.90
2022-11-24T19:56:31.451Z,20.88
2022-11-24T19:59:04.606Z,16.92
2022-11-24T20:01:37.461Z,19.73
2022-11-24T20:04:07.350Z,19.10
2022-11-24T20:06:41.086Z,20.63
2022-11-24T20:09:11.809Z,23.27
2022-11-24T20:11:39.469Z,23.15
2022-11-24T20:14:14.024Z,22.85
2022-11-24T20:16:47.732Z,19.80
2022-11-24T20:19:16.514Z,19.55
2022-11-24T20:21:50.261Z,16.77
2022-11-24T20:24:21.886Z,19.70
2022-11-24T20:27:00.093Z,24.42
2022-11-24T20:29:29.348Z,22.30
2022-11-24T20:31:56.290Z,23.55
2022-11-24T20:34:27.034Z,22.85
2022-11-24T20:36:56.023Z,23.02
2022-11-24T20:39:26.354Z,18.92
2022-11-24T20:41:56.863Z,20.33
2022-11-24T20:44:26.329Z,22.60
2022-11-24T20:46:55.260Z,19.77
2022-11-24T20:49:23.122Z,26.10
2022-11-24T20:51:54.453Z,21.30
2022-11-24T20:54:22.247Z,18.33
2022-11-24T20:56:54.352Z,22.95
2022-11-24T20:59:23.628Z,25.73
2022-11-24T21:01:55.207Z,22.08
2022-11-24T21:04:26.019Z,21.02
2022-11-24T21:06:54.912Z,23.95
2022-11-24T21:09:21.816Z,15.98
2022-11-24T21:11:48.625Z,19.35
2022-11-24T21:14:17.707Z,20.88
2022-11-24T21:16:49.170Z,19.38
2022-11-24T21:19:18.247Z,21.90
2022-11-24T21:21:47.387Z,21.05
2022-11-24T21:24:15.978Z,26.25
2022-11-24T21:26:44.082Z,20.15
2022-11-24T21:29:14.922Z,20.77
2022-11-24T21:31:44.206Z,20.13
2022-11-24T21:34:15.520Z,23.20
2022-11-24T21:36:44.896Z,19.48
2022-11-24T21:39:14.013Z,20.45
2022-11-24T21:41:41.138Z,19.08
2022-11-24T21:44:08.131Z,22.50
2022-11-24T21:46:43.613Z,20.17
2022-11-24T21:49:15.011Z,20.80
2022-11-24T21:51:43.973Z,20.55
2022-11-24T21:54:10.718Z,17.30
2022-11-24T21:56:44.707Z,21.92
2022-11-24T21:59:11.432Z,22.17
2022-11-24T22:01:40.765Z,18.08
2022-11-24T22:04:07.574Z,22.75
2022-11-24T22:06:34.497Z,23.95
2022-11-24T22:09:01.306Z,24.27
2022-11-24T22:11:28.062Z,19.10
2022-11-24T22:13:54.758Z,20.42
2022-11-24T22:16:23.798Z,24.10
2022-11-24T22:18:56.072Z,22.70
2022-11-24T22:21:29.241Z,24.35
2022-11-24T22:23:58.595Z,22.88
2022-11-24T22:26:26.493Z,21.73
2022-11-24T22:28:58.006Z,18.30
2022-11-24T22:31:26.955Z,20.88
2022-11-24T22:33:55.169Z,20.27
2022-11-24T22:36:26.274Z,28.25
2022-11-24T22:39:04.306Z,22.95
2022-11-24T22:41:32.615Z,20.67
2022-11-24T22:43:59.342Z,17.38
2022-11-24T22:46:29.091Z,21.48
2022-11-24T22:48:59.203Z,27.08
2022-11-24T22:51:28.391Z,21.80
2022-11-24T22:54:00.485Z,24.42
2022-11-24T22:56:32.197Z,17.30
2022-11-24T23:01:30.004Z,22.02
2022-11-24T23:03:58.986Z,19.88
2022-11-24T23:06:28.660Z,25.55
2022-11-24T23:08:56.842Z,27.17
2022-11-24T23:11:37.406Z,28.85
2022-11-24T23:14:06.935Z,26.75
2022-11-24T23:16:36.114Z,26.88
2022-11-24T23:19:02.890Z,23.80
2022-11-24T23:21:32.387Z,24.90
2022-11-24T23:24:00.940Z,25.73
2022-11-24T23:26:34.682Z,26.33
2022-11-24T23:29:01.518Z,25.10
2022-11-24T23:31:31.348Z,21.05
2022-11-24T23:33:59.788Z,21.13
2022-11-24T23:36:30.241Z,25.17
2022-11-24T23:39:01.563Z,30.40
2022-11-24T23:41:32.471Z,23.88
2022-11-24T23:44:01.417Z,27.77
2022-11-24T23:46:28.899Z,22.35
2022-11-24T23:48:58.482Z,24.27
2022-11-24T23:51:27.157Z,26.45
2022-11-24T23:53:54.870Z,17.80
2022-11-24T23:56:33.071Z,27.27
2022-11-24T23:59:01.568Z,22.33
